Forside
METAR-TAF:

METAR-TAF

Lufthavne :

Kagoshima, Japan

Breddekreds: 31-48N, længdekreds: 130-43E, højde: 272 m

Aktuelle vejr

Denne rapport blev lavet for 37 minutter siden, kl. 02:00 UTC
Vind 4 kt fra sydsydøst, varierende mellem øst og sydsydvest
Temperatur 26°C
Fugtighed 70%
Tryk 1011 hPa
Sigt 10 km eller mere
Nogle få skyer i en højde af 3000 ft
Brudte skyer

METAR: RJFK 070200Z 15004KT 100V200 9999 FEW030 BKN/// 26/20 Q1011 RMK 1CU030 A2985

Tid: 11:37 (02:37 UTC)

Vejrudsigter

Denne rapport blev lavet for 3 timer og 32 minutter siden, kl. 23:05 UTC
Foreløbig gælder fra 07 på 00 UTC til 08 på 06 UTC
Vind 9 kt fra syd
Sigt 10 km eller mere
Nogle få skyer i en højde af 3000 ft
Spredte skyer i en højde af 4500 ft
ændring
fra 07 på 12 UTC til 07 på 15 UTC
Vind 4 kt fra nord
ændring
fra 07 på 21 UTC til 08 på 00 UTC
Vind 8 kt fra sydøst

TAF: RJFK 062305Z 0700/0806 19009KT 9999 FEW030 SCT045 BECMG 0712/0715 36004KT BECMG 0721/0800 13008KT

Vejrobservationer og prognoser fra mere end 4000 lufthavne (METAR og TAF).

De gule og røde prikker repræsenterer de meteorologiske stationer.

Flyt musen over at se navnet på stationen.

Så klik over at se vejr observationer og prognoser.

At skifte det kort: Klik på de grønne knapper med et sort kors for at zoome ind; på den grønne knap med en bindestreg for at zoome ud; eller på de grønne pile for tilstødende kort.


METAR-TAF: